createdAt,value
2023-04-18T00:01:10.018Z,9.95
2023-04-18T00:03:38.982Z,10.38
2023-04-18T00:06:06.946Z,10.55
2023-04-18T00:08:34.354Z,10.00
2023-04-18T00:11:03.702Z,9.30
2023-04-18T00:13:31.963Z,10.55
2023-04-18T00:15:59.523Z,10.20
2023-04-18T00:18:27.908Z,9.63
2023-04-18T00:20:56.208Z,9.55
2023-04-18T00:23:23.599Z,9.80
2023-04-18T00:25:50.996Z,10.20
2023-04-18T00:28:18.350Z,9.98
2023-04-18T00:30:45.916Z,9.68
2023-04-18T00:33:14.589Z,9.90
2023-04-18T00:35:44.281Z,10.32
2023-04-18T00:38:11.745Z,10.57
2023-04-18T00:40:41.146Z,10.88
2023-04-18T00:43:09.388Z,11.65
2023-04-18T00:45:37.087Z,11.23
2023-04-18T00:48:04.739Z,10.60
2023-04-18T00:50:32.786Z,10.88
2023-04-18T00:53:00.396Z,10.68
2023-04-18T00:55:28.886Z,11.20
2023-04-18T00:57:56.306Z,10.85
2023-04-18T01:00:25.738Z,12.02
2023-04-18T01:02:55.839Z,10.15
2023-04-18T01:05:23.935Z,10.25
2023-04-18T01:07:52.147Z,9.57
2023-04-18T01:10:20.403Z,11.73
2023-04-18T01:12:50.272Z,9.98
2023-04-18T01:15:17.718Z,9.25
2023-04-18T01:17:45.077Z,9.00
2023-04-18T01:20:13.797Z,10.55
2023-04-18T01:22:42.137Z,8.60
2023-04-18T01:25:10.112Z,9.63
2023-04-18T01:27:37.460Z,8.98
2023-04-18T01:30:05.445Z,7.95
2023-04-18T01:32:32.844Z,7.78
2023-04-18T01:35:00.298Z,7.90
2023-04-18T01:37:27.671Z,7.47
2023-04-18T01:39:55.085Z,7.63
2023-04-18T01:42:22.532Z,7.85
2023-04-18T01:44:49.926Z,7.18
2023-04-18T01:47:17.312Z,6.75
2023-04-18T01:49:48.159Z,6.82
2023-04-18T01:52:16.164Z,6.45
2023-04-18T01:54:43.586Z,7.57
2023-04-18T01:57:11.000Z,7.03
2023-04-18T01:59:38.799Z,6.30
2023-04-18T02:02:06.323Z,6.78
2023-04-18T02:04:33.835Z,6.15
2023-04-18T02:07:01.215Z,6.38
2023-04-18T02:09:28.602Z,6.40
2023-04-18T02:11:59.296Z,5.85
2023-04-18T02:14:28.012Z,5.75
2023-04-18T02:16:55.611Z,5.55
2023-04-18T02:19:24.300Z,4.95
2023-04-18T02:21:52.111Z,4.93
2023-04-18T02:24:19.884Z,4.78
2023-04-18T02:26:47.664Z,4.35
2023-04-18T02:29:15.103Z,4.95
2023-04-18T02:31:42.616Z,5.32
2023-04-18T02:34:10.122Z,4.55
2023-04-18T02:36:37.509Z,4.15
2023-04-18T02:39:04.922Z,4.20
2023-04-18T02:41:32.368Z,4.30
2023-04-18T02:43:59.824Z,4.50
2023-04-18T02:46:27.295Z,4.35
2023-04-18T02:48:54.805Z,4.32
2023-04-18T02:51:27.614Z,4.45
2023-04-18T02:53:56.936Z,4.63
2023-04-18T02:56:28.500Z,4.15
2023-04-18T02:59:20.049Z,4.40
2023-04-18T03:02:07.704Z,3.70
2023-04-18T03:04:37.273Z,3.65
2023-04-18T03:07:07.486Z,3.95
2023-04-18T03:09:37.508Z,4.10
2023-04-18T03:12:13.407Z,4.00
2023-04-18T03:14:42.384Z,4.25
2023-04-18T03:17:09.930Z,3.83
2023-04-18T03:19:41.022Z,3.65
2023-04-18T03:22:11.219Z,3.78
2023-04-18T03:24:46.028Z,3.60
2023-04-18T03:27:13.761Z,3.50
2023-04-18T03:29:43.246Z,3.92
2023-04-18T03:32:11.465Z,3.97
2023-04-18T03:34:38.850Z,3.70
2023-04-18T03:37:08.542Z,4.25
2023-04-18T03:39:41.705Z,3.53
2023-04-18T03:42:09.211Z,3.08
2023-04-18T03:44:36.654Z,3.00
2023-04-18T03:47:04.768Z,3.30
2023-04-18T03:49:34.736Z,2.70
2023-04-18T03:52:03.492Z,2.60
2023-04-18T03:54:30.928Z,2.47
2023-04-18T03:56:59.447Z,2.80
2023-04-18T03:59:27.727Z,2.58
2023-04-18T04:01:56.177Z,2.55
2023-04-18T04:04:23.733Z,2.67
2023-04-18T04:06:51.716Z,2.75
2023-04-18T04:09:19.209Z,2.55
2023-04-18T04:11:46.630Z,2.47
2023-04-18T04:14:15.961Z,2.70
2023-04-18T04:16:46.419Z,2.53
2023-04-18T04:19:16.835Z,2.70
2023-04-18T04:21:52.981Z,3.00
2023-04-18T04:24:22.679Z,2.97
2023-04-18T04:26:51.470Z,2.70
2023-04-18T04:29:24.275Z,4.30
2023-04-18T04:31:53.109Z,2.70
2023-04-18T04:34:31.086Z,3.00
2023-04-18T04:37:00.836Z,2.78
2023-04-18T04:39:29.573Z,2.70
2023-04-18T04:42:12.259Z,2.72
2023-04-18T04:44:49.355Z,3.10
2023-04-18T04:47:17.511Z,3.13
2023-04-18T04:49:45.168Z,2.90
2023-04-18T04:52:17.558Z,3.13
2023-04-18T04:54:46.572Z,3.13
2023-04-18T04:57:16.413Z,4.45
2023-04-18T04:59:44.232Z,3.17
2023-04-18T05:02:11.765Z,3.50
2023-04-18T05:04:39.361Z,3.40
2023-04-18T05:07:06.799Z,2.90
2023-04-18T05:09:34.193Z,2.85
2023-04-18T05:12:01.931Z,2.40
2023-04-18T05:14:31.391Z,2.55
2023-04-18T05:16:59.516Z,2.58
2023-04-18T05:19:27.502Z,2.60
2023-04-18T05:21:54.900Z,2.50
2023-04-18T05:24:22.249Z,2.38
2023-04-18T05:26:49.668Z,2.92
2023-04-18T05:29:17.095Z,2.42
2023-04-18T05:31:44.549Z,2.60
2023-04-18T05:34:12.367Z,3.40
2023-04-18T05:36:39.962Z,1.95
2023-04-18T05:39:07.360Z,2.88
2023-04-18T05:41:34.831Z,2.30
2023-04-18T05:44:05.706Z,2.10
2023-04-18T05:46:44.541Z,2.45
2023-04-18T05:49:12.363Z,2.50
2023-04-18T05:51:39.755Z,2.03
2023-04-18T05:54:07.148Z,1.95
2023-04-18T05:56:34.596Z,2.30
2023-04-18T05:59:02.063Z,2.47
2023-04-18T06:01:29.423Z,14.35
2023-04-18T06:03:57.025Z,4.85
2023-04-18T06:06:24.868Z,3.25
2023-04-18T06:08:52.276Z,2.47
2023-04-18T06:11:21.274Z,2.40
2023-04-18T06:13:48.691Z,2.22
2023-04-18T06:16:16.240Z,2.60
2023-04-18T06:18:43.607Z,2.35
2023-04-18T06:21:11.032Z,2.60
2023-04-18T06:23:38.608Z,2.05
2023-04-18T06:26:07.438Z,2.30
2023-04-18T06:28:35.016Z,2.50
2023-04-18T06:31:02.622Z,2.55
2023-04-18T06:33:30.090Z,2.22
2023-04-18T06:35:58.053Z,2.45
2023-04-18T06:38:25.445Z,2.47
2023-04-18T06:40:53.021Z,3.10
2023-04-18T06:43:22.014Z,2.55
2023-04-18T06:45:49.438Z,2.40
2023-04-18T06:48:16.949Z,2.20
2023-04-18T06:50:44.837Z,2.72
2023-04-18T06:53:12.314Z,3.78
2023-04-18T06:55:40.791Z,2.65
2023-04-18T06:58:09.698Z,2.88
2023-04-18T07:00:37.029Z,2.42
2023-04-18T07:03:11.310Z,2.50
2023-04-18T07:05:39.896Z,2.20
2023-04-18T07:08:07.561Z,2.30
2023-04-18T07:10:35.006Z,2.40
2023-04-18T07:13:02.537Z,2.33
2023-04-18T07:15:30.066Z,2.92
2023-04-18T07:17:57.499Z,2.42
2023-04-18T07:20:24.879Z,2.70
2023-04-18T07:22:52.244Z,2.78
2023-04-18T07:25:19.763Z,3.35
2023-04-18T07:27:47.730Z,3.58
2023-04-18T07:30:15.348Z,3.22
2023-04-18T07:32:42.776Z,3.17
2023-04-18T07:35:10.589Z,2.90
2023-04-18T07:37:38.147Z,3.45
2023-04-18T07:40:06.271Z,3.17
2023-04-18T07:42:33.632Z,4.22
2023-04-18T07:45:01.035Z,3.85
2023-04-18T07:47:30.183Z,4.30
2023-04-18T07:49:58.271Z,5.13
2023-04-18T07:52:25.856Z,4.80
2023-04-18T07:54:53.305Z,4.60
2023-04-18T07:57:20.881Z,4.93
2023-04-18T07:59:48.329Z,5.45
2023-04-18T08:02:16.267Z,5.22
2023-04-18T08:04:43.833Z,5.20
2023-04-18T08:07:11.377Z,4.38
2023-04-18T08:09:38.961Z,4.97
2023-04-18T08:12:06.629Z,4.82
2023-04-18T08:14:34.061Z,4.53
2023-04-18T08:17:01.537Z,4.63
2023-04-18T08:19:28.911Z,5.03
2023-04-18T08:22:08.383Z,4.28
2023-04-18T08:24:35.933Z,4.30
2023-04-18T08:27:03.510Z,5.35
2023-04-18T08:29:31.213Z,4.20
2023-04-18T08:31:59.626Z,4.97
2023-04-18T08:34:28.834Z,4.15
2023-04-18T08:36:56.694Z,4.90
2023-04-18T08:39:25.414Z,6.72
2023-04-18T08:41:59.561Z,4.28
2023-04-18T08:44:30.668Z,3.60
2023-04-18T08:47:00.158Z,4.43
2023-04-18T08:49:28.396Z,3.97
2023-04-18T08:51:57.532Z,4.03
2023-04-18T08:54:27.309Z,3.70
2023-04-18T08:57:05.627Z,5.18
2023-04-18T08:59:35.708Z,4.95
2023-04-18T09:02:05.499Z,4.93
2023-04-18T09:04:34.492Z,4.88
2023-04-18T09:07:07.353Z,4.70
2023-04-18T09:09:47.553Z,4.88
2023-04-18T09:12:22.466Z,4.25
2023-04-18T09:14:56.613Z,4.18
2023-04-18T09:17:41.701Z,4.75
2023-04-18T09:20:10.912Z,4.30
2023-04-18T09:22:50.638Z,5.75
2023-04-18T09:25:46.728Z,4.32
2023-04-18T09:28:28.084Z,4.28
2023-04-18T09:31:13.403Z,4.20
2023-04-18T09:33:44.809Z,4.60
2023-04-18T09:36:19.710Z,4.93
2023-04-18T09:38:53.856Z,4.70
2023-04-18T09:41:23.695Z,7.30
2023-04-18T09:44:15.870Z,3.58
2023-04-18T09:46:47.098Z,3.97
2023-04-18T09:49:16.987Z,4.50
2023-04-18T09:51:46.064Z,4.70
2023-04-18T09:54:18.213Z,3.33
2023-04-18T09:59:21.125Z,4.50
2023-04-18T10:01:50.883Z,4.25
2023-04-18T10:04:19.160Z,4.35
2023-04-18T10:06:47.037Z,5.28
2023-04-18T10:09:16.091Z,4.90
2023-04-18T10:11:44.364Z,4.50
2023-04-18T10:14:14.727Z,4.60
2023-04-18T10:16:45.458Z,4.85
2023-04-18T10:19:26.801Z,5.45
2023-04-18T10:21:59.589Z,4.47
2023-04-18T10:24:49.481Z,4.80
2023-04-18T10:27:17.850Z,4.30
2023-04-18T10:29:54.505Z,4.68
2023-04-18T10:32:25.076Z,4.78
2023-04-18T10:34:56.160Z,10.52
2023-04-18T10:37:26.672Z,3.55
2023-04-18T10:39:54.057Z,4.38
2023-04-18T10:42:47.272Z,4.00
2023-04-18T10:45:19.115Z,3.63
2023-04-18T10:47:46.716Z,3.50
2023-04-18T10:50:14.936Z,3.78
2023-04-18T10:52:42.708Z,5.15
2023-04-18T10:55:17.769Z,4.93
2023-04-18T10:57:49.165Z,5.78
2023-04-18T11:00:18.932Z,5.88
2023-04-18T11:03:04.961Z,5.60
2023-04-18T11:05:32.450Z,5.32
2023-04-18T11:07:59.891Z,6.25
2023-04-18T11:10:28.019Z,5.70
2023-04-18T11:12:56.528Z,6.10
2023-04-18T11:15:25.468Z,7.20
2023-04-18T11:18:01.109Z,5.95
2023-04-18T11:20:30.126Z,6.15
2023-04-18T11:22:59.263Z,4.68
2023-04-18T11:25:32.033Z,4.10
2023-04-18T11:28:01.161Z,3.35
2023-04-18T11:30:36.303Z,3.50
2023-04-18T11:33:08.793Z,3.30
2023-04-18T11:35:46.161Z,4.00
2023-04-18T11:38:15.832Z,5.10
2023-04-18T11:40:50.768Z,3.92
2023-04-18T11:43:24.022Z,5.10
2023-04-18T11:45:52.731Z,4.15
2023-04-18T11:48:20.169Z,3.80
2023-04-18T11:50:47.650Z,4.30
2023-04-18T11:53:15.315Z,5.32
2023-04-18T11:55:55.003Z,5.55
2023-04-18T11:58:31.973Z,5.15
2023-04-18T12:01:00.695Z,5.22
2023-04-18T12:03:29.749Z,4.55
2023-04-18T12:06:03.816Z,5.00
2023-04-18T12:08:32.377Z,6.70
2023-04-18T12:10:59.828Z,6.57
2023-04-18T12:13:32.494Z,7.70
2023-04-18T12:16:02.520Z,7.53
2023-04-18T12:18:30.060Z,6.07
2023-04-18T12:20:58.594Z,6.05
2023-04-18T12:23:35.891Z,6.20
2023-04-18T12:26:04.015Z,6.00
2023-04-18T12:28:32.263Z,5.35
2023-04-18T12:31:00.348Z,5.80
2023-04-18T12:33:27.894Z,5.28
2023-04-18T12:35:56.109Z,5.18
2023-04-18T12:38:24.052Z,5.43
2023-04-18T12:40:52.123Z,4.70
2023-04-18T12:43:19.936Z,3.50
2023-04-18T12:45:47.549Z,5.63
2023-04-18T12:48:15.039Z,5.13
2023-04-18T12:50:42.449Z,5.32
2023-04-18T12:53:10.226Z,5.50
2023-04-18T12:55:37.969Z,5.45
2023-04-18T12:58:05.493Z,4.40
2023-04-18T13:00:33.212Z,3.42
2023-04-18T13:03:00.918Z,3.00
2023-04-18T13:05:33.108Z,2.70
2023-04-18T13:08:15.409Z,3.58
2023-04-18T13:10:44.193Z,3.25
2023-04-18T13:13:11.632Z,3.08
2023-04-18T13:15:39.212Z,2.65
2023-04-18T13:18:06.945Z,2.95
2023-04-18T13:20:34.824Z,2.63
2023-04-18T13:23:05.536Z,2.70
2023-04-18T13:25:33.053Z,2.42
2023-04-18T13:28:01.063Z,2.33
2023-04-18T13:30:28.956Z,2.00
2023-04-18T13:32:56.917Z,2.10
2023-04-18T13:35:24.480Z,1.80
2023-04-18T13:37:52.032Z,2.00
2023-04-18T13:40:19.496Z,2.08
2023-04-18T13:42:46.885Z,2.40
2023-04-18T13:45:14.278Z,2.30
2023-04-18T13:47:41.801Z,2.05
2023-04-18T13:50:09.643Z,2.53
2023-04-18T13:52:37.048Z,2.88
2023-04-18T13:55:04.963Z,2.28
2023-04-18T13:57:33.525Z,2.40
2023-04-18T14:00:01.292Z,2.50
2023-04-18T14:02:39.527Z,2.35
2023-04-18T14:05:07.455Z,2.03
2023-04-18T14:07:35.333Z,2.20
2023-04-18T14:10:02.735Z,2.55
2023-04-18T14:12:30.128Z,3.00
2023-04-18T14:14:57.566Z,2.65
2023-04-18T14:17:24.954Z,2.88
2023-04-18T14:19:52.349Z,2.50
2023-04-18T14:22:19.756Z,2.08
2023-04-18T14:24:47.577Z,1.70
2023-04-18T14:27:15.050Z,1.80
2023-04-18T14:29:42.488Z,2.40
2023-04-18T14:32:09.849Z,2.00
2023-04-18T14:34:38.200Z,2.50
2023-04-18T14:37:06.427Z,2.53
2023-04-18T14:39:33.849Z,2.10
2023-04-18T14:42:01.527Z,2.00
2023-04-18T14:44:30.798Z,2.28
2023-04-18T14:46:58.208Z,2.70
2023-04-18T14:49:25.628Z,2.40
2023-04-18T14:51:53.042Z,2.38
2023-04-18T14:54:20.543Z,2.70
2023-04-18T14:56:47.917Z,2.08
2023-04-18T14:59:16.619Z,2.30
2023-04-18T15:01:44.521Z,2.05
2023-04-18T15:04:12.104Z,1.85
2023-04-18T15:06:39.787Z,1.80
2023-04-18T15:09:07.356Z,2.20
2023-04-18T15:11:34.715Z,1.83
2023-04-18T15:14:02.138Z,1.83
2023-04-18T15:16:29.550Z,2.80
2023-04-18T15:18:56.973Z,2.45
2023-04-18T15:21:24.384Z,1.90
2023-04-18T15:23:51.745Z,2.22
2023-04-18T15:26:19.156Z,2.22
2023-04-18T15:28:46.615Z,2.20
2023-04-18T15:31:15.596Z,2.20
2023-04-18T15:33:43.025Z,2.33
2023-04-18T15:36:10.539Z,1.98
2023-04-18T15:38:37.994Z,2.22
2023-04-18T15:41:05.574Z,1.92
2023-04-18T15:43:32.935Z,2.20
2023-04-18T15:46:00.321Z,2.65
2023-04-18T15:48:34.175Z,1.90
2023-04-18T15:51:01.630Z,2.05
2023-04-18T15:53:29.277Z,2.30
2023-04-18T15:55:57.293Z,2.40
2023-04-18T15:58:27.722Z,2.55
2023-04-18T16:00:55.126Z,3.45
2023-04-18T16:03:24.639Z,4.22
2023-04-18T16:05:52.263Z,3.00
2023-04-18T16:08:19.697Z,3.28
2023-04-18T16:10:47.156Z,2.88
2023-04-18T16:13:14.661Z,3.55
2023-04-18T16:15:42.792Z,2.67
2023-04-18T16:18:10.767Z,2.60
2023-04-18T16:20:38.289Z,3.03
2023-04-18T16:23:05.931Z,3.75
2023-04-18T16:25:33.267Z,4.03
2023-04-18T16:28:00.778Z,3.72
2023-04-18T16:30:28.174Z,3.17
2023-04-18T16:32:55.772Z,3.63
2023-04-18T16:35:23.353Z,2.83
2023-04-18T16:37:50.716Z,3.45
2023-04-18T16:40:18.903Z,3.72
2023-04-18T16:42:46.906Z,3.00
2023-04-18T16:45:14.372Z,2.65
2023-04-18T16:47:41.753Z,4.40
2023-04-18T16:50:09.509Z,3.65
2023-04-18T16:52:36.878Z,3.00
2023-04-18T16:55:05.050Z,3.08
2023-04-18T16:57:32.704Z,3.17
2023-04-18T17:00:02.173Z,2.88
2023-04-18T17:02:29.863Z,2.90
2023-04-18T17:04:57.615Z,2.83
2023-04-18T17:07:25.049Z,3.58
2023-04-18T17:09:54.892Z,4.10
2023-04-18T17:12:22.942Z,4.03
2023-04-18T17:14:50.362Z,3.58
2023-04-18T17:17:17.714Z,3.05
2023-04-18T17:19:46.023Z,2.83
2023-04-18T17:22:13.380Z,2.95
2023-04-18T17:24:40.796Z,2.85
2023-04-18T17:27:08.154Z,2.90
2023-04-18T17:29:35.779Z,3.53
2023-04-18T17:32:03.244Z,3.90
2023-04-18T17:34:30.886Z,3.13
2023-04-18T17:36:58.228Z,3.03
2023-04-18T17:39:25.679Z,2.55
2023-04-18T17:41:53.096Z,2.97
2023-04-18T17:44:20.736Z,3.00
2023-04-18T17:46:49.996Z,3.28
2023-04-18T17:49:17.938Z,3.25
2023-04-18T17:51:45.610Z,3.53
2023-04-18T17:54:13.635Z,3.72
2023-04-18T17:56:41.204Z,3.72
2023-04-18T17:59:09.804Z,4.35
2023-04-18T18:01:38.049Z,4.07
2023-04-18T18:04:05.913Z,4.13
2023-04-18T18:06:33.352Z,3.70
2023-04-18T18:09:00.734Z,4.68
2023-04-18T18:11:28.151Z,4.70
2023-04-18T18:13:57.377Z,4.40
2023-04-18T18:16:25.170Z,4.97
2023-04-18T18:18:52.666Z,5.03
2023-04-18T18:21:20.072Z,4.45
2023-04-18T18:23:47.467Z,5.03
2023-04-18T18:26:15.105Z,4.43
2023-04-18T18:28:42.542Z,4.38
2023-04-18T18:31:09.947Z,4.50
2023-04-18T18:33:37.395Z,4.68
2023-04-18T18:36:05.529Z,4.10
2023-04-18T18:38:32.880Z,4.32
2023-04-18T18:41:03.023Z,5.05
2023-04-18T18:43:31.617Z,5.30
2023-04-18T18:45:59.078Z,4.57
2023-04-18T18:48:29.811Z,5.55
2023-04-18T18:50:58.300Z,5.68
2023-04-18T18:53:27.161Z,4.78
2023-04-18T18:55:55.505Z,4.70
2023-04-18T18:58:23.122Z,5.65
2023-04-18T19:00:51.193Z,6.00
2023-04-18T19:03:21.273Z,6.95
2023-04-18T19:05:49.721Z,5.95
2023-04-18T19:08:17.241Z,6.68
2023-04-18T19:10:44.648Z,5.40
2023-04-18T19:13:12.056Z,5.00
2023-04-18T19:15:39.469Z,4.95
2023-04-18T19:18:06.839Z,4.40
2023-04-18T19:20:34.314Z,4.43
2023-04-18T19:23:01.732Z,4.28
2023-04-18T19:25:29.126Z,4.70
2023-04-18T19:27:56.504Z,5.05
2023-04-18T19:30:24.998Z,5.20
2023-04-18T19:32:52.496Z,6.22
2023-04-18T19:35:19.930Z,6.80
2023-04-18T19:37:47.323Z,6.57
2023-04-18T19:40:14.743Z,7.00
2023-04-18T19:42:42.176Z,7.07
2023-04-18T19:45:11.890Z,27.02
2023-04-18T19:47:39.298Z,14.60
2023-04-18T19:50:07.544Z,9.43
2023-04-18T19:52:35.092Z,8.77
2023-04-18T19:55:02.508Z,8.85
2023-04-18T19:57:29.918Z,9.35
2023-04-18T19:59:57.336Z,9.60
2023-04-18T20:02:24.801Z,9.38
2023-04-18T20:04:52.469Z,9.68
2023-04-18T20:07:20.209Z,8.68
2023-04-18T20:09:47.565Z,9.27
2023-04-18T20:12:14.979Z,10.32
2023-04-18T20:14:42.391Z,8.40
2023-04-18T20:17:09.860Z,7.72
2023-04-18T20:19:37.419Z,7.57
2023-04-18T20:22:05.935Z,7.50
2023-04-18T20:24:34.663Z,6.85
2023-04-18T20:27:02.117Z,7.55
2023-04-18T20:29:29.576Z,6.78
2023-04-18T20:31:57.083Z,6.45
2023-04-18T20:34:24.647Z,6.57
2023-04-18T20:36:52.900Z,7.80
2023-04-18T20:39:20.277Z,6.70
2023-04-18T20:41:51.384Z,7.28
2023-04-18T20:44:22.270Z,7.15
2023-04-18T20:46:51.964Z,7.30
2023-04-18T20:49:19.436Z,6.03
2023-04-18T20:51:46.915Z,5.90
2023-04-18T20:54:14.696Z,6.10
2023-04-18T20:56:42.342Z,6.13
2023-04-18T20:59:09.789Z,6.07
2023-04-18T21:01:37.405Z,6.18
2023-04-18T21:04:05.101Z,5.75
2023-04-18T21:06:32.892Z,6.28
2023-04-18T21:09:00.701Z,6.35
2023-04-18T21:11:28.075Z,6.38
2023-04-18T21:13:55.561Z,5.78
2023-04-18T21:16:24.101Z,6.05
2023-04-18T21:18:53.074Z,5.70
2023-04-18T21:21:20.461Z,5.75
2023-04-18T21:23:47.794Z,5.78
2023-04-18T21:26:15.440Z,6.47
2023-04-18T21:28:59.955Z,6.20
2023-04-18T21:31:30.430Z,5.85
2023-04-18T21:33:59.974Z,5.70
2023-04-18T21:36:28.850Z,5.70
2023-04-18T21:38:57.462Z,5.18
2023-04-18T21:41:25.460Z,5.97
2023-04-18T21:43:53.583Z,4.68
2023-04-18T21:46:21.409Z,5.32
2023-04-18T21:48:49.003Z,5.15
2023-04-18T21:51:17.358Z,5.10
2023-04-18T21:53:45.114Z,5.10
2023-04-18T21:56:12.752Z,5.68
2023-04-18T21:58:40.183Z,5.53
2023-04-18T22:01:07.801Z,4.90
2023-04-18T22:03:37.074Z,5.45
2023-04-18T22:06:04.810Z,5.38
2023-04-18T22:08:32.547Z,5.20
2023-04-18T22:11:00.356Z,4.75
2023-04-18T22:13:33.144Z,5.35
2023-04-18T22:16:04.781Z,5.50
2023-04-18T22:18:37.947Z,5.30
2023-04-18T22:21:06.115Z,4.93
2023-04-18T22:23:33.626Z,4.90
2023-04-18T22:26:01.301Z,4.93
2023-04-18T22:28:28.829Z,5.05
2023-04-18T22:30:56.667Z,5.18
2023-04-18T22:33:24.660Z,5.07
2023-04-18T22:35:53.384Z,4.38
2023-04-18T22:38:20.874Z,5.57
2023-04-18T22:40:48.270Z,5.70
2023-04-18T22:43:15.675Z,5.18
2023-04-18T22:45:43.115Z,5.90
2023-04-18T22:48:12.741Z,5.07
2023-04-18T22:50:43.103Z,5.75
2023-04-18T22:53:11.180Z,5.85
2023-04-18T22:55:40.403Z,6.07
2023-04-18T22:58:08.486Z,5.80
2023-04-18T23:00:36.314Z,6.32
2023-04-18T23:03:04.384Z,6.13
2023-04-18T23:05:32.094Z,6.05
2023-04-18T23:08:00.533Z,7.13
2023-04-18T23:10:28.398Z,6.68
2023-04-18T23:12:56.409Z,6.20
2023-04-18T23:15:24.599Z,6.38
2023-04-18T23:17:54.938Z,6.72
2023-04-18T23:20:24.072Z,6.93
2023-04-18T23:22:51.902Z,6.90
2023-04-18T23:25:22.299Z,5.82
2023-04-18T23:27:49.710Z,6.22
2023-04-18T23:30:17.298Z,6.28
2023-04-18T23:32:44.906Z,5.85
2023-04-18T23:35:12.404Z,5.72
2023-04-18T23:37:39.853Z,6.18
2023-04-18T23:40:08.151Z,6.38
2023-04-18T23:42:35.961Z,6.22
2023-04-18T23:45:04.218Z,5.88
2023-04-18T23:47:31.772Z,5.65
2023-04-18T23:49:59.377Z,5.13
2023-04-18T23:52:26.838Z,5.60
2023-04-18T23:54:54.283Z,5.25
2023-04-18T23:57:21.875Z,5.82
2023-04-18T23:59:49.259Z,6.07
